Time;durP1;ratioP1;P1;durP2;ratioP2;P2;SDS_P1;SDS_P2;PMS_P1;PMS_P2;Temp;Humidity;BMP_temperature;BMP_pressure;BME280_temperature;BME280_humidity;BME280_pressure;Samples;Min_cycle;Max_cycle;Signal;HPM_P1;HPM_P2
2024/03/21 00:00:30;;;;;;;46.47;28.60;;;;;;;;;;5062615;28;20538;-72
2024/03/21 00:02:56;;;;;;;45.25;28.85;;;;;;;;;;5053061;28;20613;-72
2024/03/21 00:05:22;;;;;;;44.83;27.98;;;;;;;;;;5054948;28;20288;-72
2024/03/21 00:07:48;;;;;;;48.10;28.65;;;;;;;;;;5055071;28;20201;-72
2024/03/21 00:10:19;;;;;;;48.25;29.23;;;;;;;;;;5054612;28;20926;-72
2024/03/21 00:12:45;;;;;;;45.38;29.65;;;;;;;;;;5054771;28;20279;-72
2024/03/21 00:15:11;;;;;;;47.35;29.27;;;;;;;;;;5054318;28;20193;-72
2024/03/21 00:17:37;;;;;;;46.15;29.15;;;;;;;;;;5053935;28;20196;-73
2024/03/21 00:20:05;;;;;;;44.33;28.13;;;;;;;;;;5054826;28;20213;-71
2024/03/21 00:22:30;;;;;;;41.30;27.65;;;;;;;;;;5054511;28;20284;-72
2024/03/21 00:24:56;;;;;;;44.88;28.25;;;;;;;;;;5051043;28;20197;-73
2024/03/21 00:27:25;;;;;;;47.90;28.45;;;;;;;;;;5053111;28;20185;-72
2024/03/21 00:29:50;;;;;;;43.22;27.55;;;;;;;;;;5035776;28;20848;-72
2024/03/21 00:32:16;;;;;;;40.97;27.77;;;;;;;;;;5050679;28;20292;-72
2024/03/21 00:34:42;;;;;;;43.42;29.30;;;;;;;;;;5044976;28;20267;-72
2024/03/21 00:37:07;;;;;;;44.33;28.75;;;;;;;;;;5051482;28;20233;-71
2024/03/21 00:39:33;;;;;;;47.17;30.88;;;;;;;;;;5045737;28;20201;-71
2024/03/21 00:41:58;;;;;;;52.65;30.85;;;;;;;;;;5036697;28;20772;-71
2024/03/21 00:44:24;;;;;;;46.88;30.95;;;;;;;;;;5060062;28;20181;-71
2024/03/21 00:46:49;;;;;;;52.00;31.55;;;;;;;;;;5064538;28;20259;-72
2024/03/21 00:49:16;;;;;;;49.20;32.17;;;;;;;;;;5058950;28;20241;-72
2024/03/21 00:51:42;;;;;;;48.65;30.67;;;;;;;;;;5053684;28;20674;-72
2024/03/21 00:54:07;;;;;;;49.78;32.08;;;;;;;;;;5054415;28;20181;-72
2024/03/21 00:56:33;;;;;;;53.03;33.05;;;;;;;;;;5055078;28;20216;-72
2024/03/21 00:59:00;;;;;;;51.45;33.00;;;;;;;;;;5057480;28;20715;-72
2024/03/21 01:01:26;;;;;;;55.45;34.58;;;;;;;;;;5053535;28;20660;-72
2024/03/21 01:03:52;;;;;;;52.85;34.65;;;;;;;;;;5058099;28;20189;-73
2024/03/21 01:06:17;;;;;;;54.03;34.80;;;;;;;;;;5055017;28;21564;-72
2024/03/21 01:08:43;;;;;;;50.65;33.88;;;;;;;;;;5058647;28;20267;-73
2024/03/21 01:11:09;;;;;;;52.67;34.03;;;;;;;;;;5057646;28;20185;-71
2024/03/21 01:13:34;;;;;;;56.20;34.58;;;;;;;;;;5058987;28;20217;-72
2024/03/21 01:16:00;;;;;;;56.85;35.53;;;;;;;;;;5055877;28;20271;-72
2024/03/21 01:18:34;;;;;;;56.63;35.55;;;;;;;;;;5056588;28;20680;-72
2024/03/21 01:21:04;;;;;;;53.22;35.42;;;;;;;;;;5058199;28;20212;-72
2024/03/21 01:23:32;;;;;;;59.53;36.33;;;;;;;;;;5055823;28;20184;-72
2024/03/21 01:25:58;;;;;;;60.08;36.15;;;;;;;;;;5058011;28;20672;-72
2024/03/21 01:28:24;;;;;;;58.20;35.25;;;;;;;;;;5058496;28;20193;-72
2024/03/21 01:30:49;;;;;;;58.88;36.80;;;;;;;;;;5058096;28;20296;-72
2024/03/21 01:33:15;;;;;;;55.33;35.60;;;;;;;;;;5055598;28;20258;-72
2024/03/21 01:35:40;;;;;;;50.78;34.60;;;;;;;;;;5054283;28;20299;-72
2024/03/21 01:38:06;;;;;;;57.30;35.38;;;;;;;;;;5047983;28;20282;-72
2024/03/21 01:40:36;;;;;;;54.22;34.47;;;;;;;;;;5060996;28;20242;-72
2024/03/21 01:43:02;;;;;;;57.17;35.25;;;;;;;;;;5059426;28;20664;-73
2024/03/21 01:45:27;;;;;;;58.47;36.45;;;;;;;;;;5053189;28;20520;-72
2024/03/21 01:47:53;;;;;;;60.83;36.55;;;;;;;;;;5062141;28;20196;-72
2024/03/21 01:50:19;;;;;;;59.35;34.42;;;;;;;;;;5058419;28;20189;-72
2024/03/21 01:52:45;;;;;;;56.33;35.75;;;;;;;;;;5051939;28;20204;-72
2024/03/21 01:55:14;;;;;;;54.60;34.60;;;;;;;;;;5059407;28;20640;-72
2024/03/21 01:57:40;;;;;;;55.35;35.75;;;;;;;;;;5060522;28;20181;-72
2024/03/21 02:00:07;;;;;;;58.67;34.22;;;;;;;;;;5059180;28;20201;-72
2024/03/21 02:02:34;;;;;;;57.60;35.20;;;;;;;;;;5057030;28;20200;-73
2024/03/21 02:04:59;;;;;;;54.08;34.15;;;;;;;;;;5053483;28;20247;-72
2024/03/21 02:07:25;;;;;;;57.63;35.53;;;;;;;;;;5054085;28;20189;-72
2024/03/21 02:09:51;;;;;;;59.28;35.78;;;;;;;;;;5056845;28;20257;-73
2024/03/21 02:12:49;;;;;;;54.60;35.20;;;;;;;;;;5056314;28;20264;-72
2024/03/21 02:15:15;;;;;;;59.15;36.00;;;;;;;;;;5054646;28;20186;-71
2024/03/21 02:17:41;;;;;;;60.58;37.22;;;;;;;;;;5052848;28;20593;-72
2024/03/21 02:20:08;;;;;;;63.83;38.17;;;;;;;;;;5057107;28;20275;-72
2024/03/21 02:22:36;;;;;;;63.47;37.40;;;;;;;;;;5058703;28;20604;-72
2024/03/21 02:25:09;;;;;;;60.28;37.70;;;;;;;;;;5054844;28;20238;-72
2024/03/21 02:27:35;;;;;;;63.47;37.60;;;;;;;;;;5054016;28;20714;-73
2024/03/21 02:30:01;;;;;;;60.30;37.47;;;;;;;;;;5056443;28;20178;-72
2024/03/21 02:32:27;;;;;;;64.43;38.75;;;;;;;;;;5055533;28;20296;-73
2024/03/21 02:34:54;;;;;;;65.65;38.83;;;;;;;;;;5056602;28;20636;-73
2024/03/21 02:37:19;;;;;;;68.47;39.53;;;;;;;;;;5052153;28;20267;-72
2024/03/21 02:39:46;;;;;;;60.08;36.90;;;;;;;;;;5051470;28;20228;-72
2024/03/21 02:42:12;;;;;;;61.10;38.13;;;;;;;;;;5054914;28;20181;-72
2024/03/21 02:44:38;;;;;;;62.05;37.78;;;;;;;;;;5061688;28;20229;-73
2024/03/21 02:47:03;;;;;;;66.45;36.83;;;;;;;;;;5054932;28;20180;-72
2024/03/21 02:49:29;;;;;;;58.97;36.00;;;;;;;;;;5053421;28;20201;-72
2024/03/21 02:51:55;;;;;;;62.63;36.25;;;;;;;;;;5055636;28;20718;-72
2024/03/21 02:54:20;;;;;;;60.85;34.00;;;;;;;;;;5050265;28;20322;-73
2024/03/21 02:56:46;;;;;;;57.28;32.45;;;;;;;;;;5053750;28;20544;-72
2024/03/21 02:59:12;;;;;;;52.15;29.42;;;;;;;;;;5058771;28;20197;-72
2024/03/21 03:01:37;;;;;;;49.85;28.52;;;;;;;;;;5053413;28;20313;-72
2024/03/21 03:04:03;;;;;;;45.90;28.27;;;;;;;;;;5059599;28;20202;-72
2024/03/21 03:06:28;;;;;;;46.22;28.13;;;;;;;;;;5060383;28;20192;-72
2024/03/21 03:08:54;;;;;;;42.92;26.92;;;;;;;;;;5058863;28;20214;-72
2024/03/21 03:11:19;;;;;;;43.83;26.92;;;;;;;;;;5055393;28;20666;-72
2024/03/21 03:13:44;;;;;;;43.47;26.42;;;;;;;;;;5050352;28;20575;-72
2024/03/21 03:16:10;;;;;;;39.40;24.75;;;;;;;;;;5052596;28;20296;-72
2024/03/21 03:18:35;;;;;;;40.60;24.40;;;;;;;;;;5060075;28;20213;-72
2024/03/21 03:21:01;;;;;;;40.90;24.08;;;;;;;;;;5053273;28;20289;-73
2024/03/21 03:23:26;;;;;;;37.88;23.35;;;;;;;;;;5053414;28;20289;-74
2024/03/21 03:25:51;;;;;;;38.97;23.30;;;;;;;;;;5059941;28;20188;-73
2024/03/21 03:28:17;;;;;;;40.35;24.38;;;;;;;;;;5049004;28;20200;-72
2024/03/21 03:30:44;;;;;;;38.88;24.52;;;;;;;;;;5047751;28;20325;-72
2024/03/21 03:35:54;;;;;;;36.05;22.55;;;;;;;;;;5054133;28;20282;-73
2024/03/21 03:38:19;;;;;;;39.88;22.77;;;;;;;;;;5047848;28;20186;-73
2024/03/21 03:40:45;;;;;;;36.28;22.95;;;;;;;;;;5053014;28;20186;-72
2024/03/21 03:43:11;;;;;;;33.40;22.27;;;;;;;;;;5056887;28;20224;-73
2024/03/21 03:45:36;;;;;;;37.58;22.67;;;;;;;;;;5051677;28;20188;-72
2024/03/21 03:48:02;;;;;;;33.90;21.33;;;;;;;;;;5052815;28;20185;-72
2024/03/21 03:50:27;;;;;;;34.92;20.83;;;;;;;;;;5056055;28;20226;-71
2024/03/21 03:52:53;;;;;;;31.95;20.50;;;;;;;;;;5053964;28;20282;-72
2024/03/21 03:55:18;;;;;;;31.88;19.60;;;;;;;;;;5040548;28;20185;-72
2024/03/21 03:57:43;;;;;;;29.70;19.83;;;;;;;;;;5054608;28;20592;-72
2024/03/21 04:00:10;;;;;;;29.38;19.35;;;;;;;;;;5053667;28;20673;-72
2024/03/21 04:02:37;;;;;;;33.63;21.13;;;;;;;;;;5054974;28;20200;-72
2024/03/21 04:05:04;;;;;;;30.77;19.65;;;;;;;;;;5054761;28;20653;-71
2024/03/21 04:07:30;;;;;;;28.92;20.20;;;;;;;;;;5049075;28;20196;-72
2024/03/21 04:09:55;;;;;;;29.38;19.02;;;;;;;;;;5060139;28;20282;-72
2024/03/21 04:12:21;;;;;;;30.27;19.63;;;;;;;;;;5055357;28;21486;-71
2024/03/21 04:14:49;;;;;;;30.83;18.90;;;;;;;;;;5051353;28;20285;-71
2024/03/21 04:17:14;;;;;;;32.28;18.13;;;;;;;;;;5053797;28;20248;-71
2024/03/21 04:19:39;;;;;;;31.30;16.80;;;;;;;;;;5050467;28;20501;-72
2024/03/21 04:22:05;;;;;;;24.15;14.57;;;;;;;;;;5050670;28;20193;-71
2024/03/21 04:24:30;;;;;;;22.90;12.88;;;;;;;;;;5054384;28;20199;-72
2024/03/21 04:26:56;;;;;;;20.05;11.70;;;;;;;;;;5053188;28;20177;-71
2024/03/21 04:29:21;;;;;;;19.23;11.45;;;;;;;;;;5053327;28;20194;-72
2024/03/21 04:31:47;;;;;;;15.23;9.93;;;;;;;;;;5052881;28;20193;-71
2024/03/21 04:34:14;;;;;;;16.48;9.70;;;;;;;;;;5051424;28;20598;-72
2024/03/21 04:36:39;;;;;;;13.70;8.27;;;;;;;;;;5051362;28;20260;-71
2024/03/21 04:39:07;;;;;;;15.48;9.07;;;;;;;;;;5052940;28;20231;-72
2024/03/21 04:41:33;;;;;;;14.18;8.00;;;;;;;;;;5050937;28;20213;-73
2024/03/21 04:43:58;;;;;;;11.68;7.90;;;;;;;;;;5056743;28;20229;-72
2024/03/21 04:46:24;;;;;;;14.88;7.97;;;;;;;;;;5055557;28;20186;-72
2024/03/21 04:48:49;;;;;;;12.43;7.82;;;;;;;;;;5050120;28;20234;-72
2024/03/21 04:51:14;;;;;;;11.57;7.55;;;;;;;;;;5049791;28;20199;-72
2024/03/21 04:53:40;;;;;;;11.05;7.72;;;;;;;;;;5051436;28;20197;-72
2024/03/21 04:56:06;;;;;;;11.82;7.22;;;;;;;;;;5047595;28;20236;-72
2024/03/21 04:58:32;;;;;;;11.05;7.28;;;;;;;;;;5054852;28;20189;-72
2024/03/21 05:00:57;;;;;;;9.95;7.30;;;;;;;;;;5051959;28;20239;-72
2024/03/21 05:03:23;;;;;;;12.27;7.03;;;;;;;;;;5053004;28;20664;-72
2024/03/21 05:05:48;;;;;;;12.48;8.48;;;;;;;;;;5053154;28;20189;-72
2024/03/21 05:08:14;;;;;;;11.73;9.00;;;;;;;;;;5047905;28;20300;-73
2024/03/21 05:10:40;;;;;;;14.77;8.77;;;;;;;;;;5043643;28;20189;-72
2024/03/21 05:13:05;;;;;;;12.40;9.20;;;;;;;;;;5051027;28;20190;-72
2024/03/21 05:15:30;;;;;;;11.07;9.23;;;;;;;;;;5051987;28;20209;-72
2024/03/21 05:17:56;;;;;;;13.30;9.80;;;;;;;;;;5054287;28;20199;-72
2024/03/21 05:20:24;;;;;;;15.07;10.50;;;;;;;;;;5060166;28;20215;-72
2024/03/21 05:22:50;;;;;;;16.65;10.70;;;;;;;;;;5045404;28;20667;-72
2024/03/21 05:25:15;;;;;;;14.38;10.63;;;;;;;;;;5059867;28;20264;-71
2024/03/21 05:27:40;;;;;;;16.80;10.48;;;;;;;;;;5055352;28;20197;-71
2024/03/21 05:30:06;;;;;;;16.08;10.90;;;;;;;;;;5055338;28;20185;-72
2024/03/21 05:32:32;;;;;;;16.67;11.25;;;;;;;;;;5036088;28;20640;-72
2024/03/21 05:34:57;;;;;;;16.88;10.95;;;;;;;;;;5038518;28;20189;-71
2024/03/21 05:37:23;;;;;;;15.30;10.75;;;;;;;;;;5056967;28;20656;-72
2024/03/21 05:39:48;;;;;;;17.95;11.10;;;;;;;;;;5057528;28;20684;-72
2024/03/21 05:42:16;;;;;;;18.42;11.63;;;;;;;;;;5053169;28;20675;-72
2024/03/21 05:44:42;;;;;;;17.80;10.50;;;;;;;;;;5058886;28;20609;-72
2024/03/21 05:47:20;;;;;;;14.38;9.50;;;;;;;;;;5058387;28;20196;-72
2024/03/21 05:49:45;;;;;;;15.90;9.55;;;;;;;;;;5060310;28;20371;-73
2024/03/21 05:52:11;;;;;;;15.40;8.27;;;;;;;;;;5059040;28;20280;-73
2024/03/21 05:54:36;;;;;;;11.82;8.10;;;;;;;;;;5045232;28;20345;-72
2024/03/21 05:57:02;;;;;;;11.93;6.95;;;;;;;;;;5050624;28;20252;-72
2024/03/21 05:59:27;;;;;;;11.80;7.10;;;;;;;;;;5054454;28;20196;-73
2024/03/21 06:01:53;;;;;;;11.25;6.68;;;;;;;;;;5055485;28;20216;-72
2024/03/21 06:04:18;;;;;;;13.75;7.35;;;;;;;;;;5057004;28;20196;-72
2024/03/21 06:06:44;;;;;;;15.27;7.05;;;;;;;;;;5059954;28;20216;-72
2024/03/21 06:09:11;;;;;;;11.20;6.43;;;;;;;;;;5051083;28;20196;-72
2024/03/21 06:11:37;;;;;;;11.82;6.95;;;;;;;;;;5046983;28;20205;-72
2024/03/21 06:14:02;;;;;;;13.75;6.88;;;;;;;;;;5054038;28;20272;-72
2024/03/21 06:16:28;;;;;;;6.95;4.78;;;;;;;;;;5061068;28;20212;-72
2024/03/21 06:18:53;;;;;;;12.70;5.75;;;;;;;;;;5058374;28;20209;-73
2024/03/21 06:21:19;;;;;;;9.98;4.97;;;;;;;;;;5049887;28;20201;-73
2024/03/21 06:23:44;;;;;;;8.93;5.35;;;;;;;;;;5053762;28;20192;-72
2024/03/21 06:26:09;;;;;;;11.95;6.10;;;;;;;;;;5057635;28;20526;-73
2024/03/21 06:28:36;;;;;;;12.60;5.78;;;;;;;;;;5052908;28;20193;-72
2024/03/21 06:31:01;;;;;;;12.38;5.93;;;;;;;;;;5056716;28;20563;-72
2024/03/21 06:33:27;;;;;;;11.10;5.13;;;;;;;;;;5059040;28;20181;-72
2024/03/21 06:35:52;;;;;;;8.80;4.57;;;;;;;;;;5056577;28;20255;-72
2024/03/21 06:38:17;;;;;;;10.82;4.88;;;;;;;;;;5051571;28;20182;-72
2024/03/21 06:40:43;;;;;;;9.63;4.53;;;;;;;;;;5053831;28;20192;-72
2024/03/21 06:43:08;;;;;;;11.60;4.78;;;;;;;;;;5055250;28;20683;-72
2024/03/21 06:45:37;;;;;;;11.02;4.30;;;;;;;;;;5048300;28;20185;-73
2024/03/21 06:48:03;;;;;;;14.55;5.05;;;;;;;;;;5055430;28;20197;-73
2024/03/21 06:50:30;;;;;;;9.20;4.88;;;;;;;;;;5055578;28;20185;-73
2024/03/21 06:52:57;;;;;;;8.70;4.38;;;;;;;;;;5056264;28;20720;-72
2024/03/21 06:55:22;;;;;;;10.32;4.22;;;;;;;;;;5053064;28;20186;-72
2024/03/21 06:57:56;;;;;;;15.60;4.75;;;;;;;;;;5058837;28;20265;-72
2024/03/21 07:00:27;;;;;;;9.32;4.97;;;;;;;;;;5052375;28;20641;-73
2024/03/21 07:02:54;;;;;;;10.75;3.92;;;;;;;;;;5053292;28;20268;-73
2024/03/21 07:05:20;;;;;;;7.07;3.50;;;;;;;;;;5050940;28;20201;-72
2024/03/21 07:07:45;;;;;;;11.27;3.20;;;;;;;;;;5051140;28;20861;-72
2024/03/21 07:10:11;;;;;;;7.03;3.00;;;;;;;;;;5059523;28;20657;-72
2024/03/21 07:12:36;;;;;;;9.00;2.90;;;;;;;;;;5053419;28;20234;-72
2024/03/21 07:15:03;;;;;;;8.35;2.65;;;;;;;;;;5050751;28;20247;-73
2024/03/21 07:17:28;;;;;;;10.18;2.83;;;;;;;;;;5045955;28;20259;-72
2024/03/21 07:19:54;;;;;;;8.77;2.50;;;;;;;;;;5050928;28;20217;-73
2024/03/21 07:22:19;;;;;;;7.72;2.63;;;;;;;;;;5052621;28;20271;-72
2024/03/21 07:24:45;;;;;;;9.95;2.35;;;;;;;;;;5060798;28;20696;-72
2024/03/21 07:27:10;;;;;;;9.93;2.53;;;;;;;;;;5053972;28;20189;-72
2024/03/21 07:29:36;;;;;;;9.90;2.47;;;;;;;;;;5058182;28;20186;-72
2024/03/21 07:32:05;;;;;;;11.25;2.55;;;;;;;;;;5052141;28;20185;-72
2024/03/21 07:34:32;;;;;;;9.20;2.42;;;;;;;;;;5053741;28;20189;-72
2024/03/21 07:36:58;;;;;;;14.32;2.78;;;;;;;;;;5054260;28;20238;-72
2024/03/21 07:39:23;;;;;;;9.70;2.53;;;;;;;;;;5055337;28;20399;-73
2024/03/21 07:41:50;;;;;;;13.93;3.03;;;;;;;;;;5054651;28;20209;-73
2024/03/21 07:44:16;;;;;;;11.20;3.08;;;;;;;;;;5055453;28;20181;-72
2024/03/21 07:46:42;;;;;;;8.15;2.95;;;;;;;;;;5055335;28;20181;-72
2024/03/21 07:49:08;;;;;;;9.73;2.50;;;;;;;;;;5055726;28;20586;-72
2024/03/21 07:51:34;;;;;;;9.93;2.50;;;;;;;;;;5054100;28;20271;-72
2024/03/21 07:54:00;;;;;;;9.27;2.30;;;;;;;;;;5053196;28;20188;-73
2024/03/21 07:56:25;;;;;;;7.88;2.15;;;;;;;;;;5048961;28;20214;-73
2024/03/21 07:58:52;;;;;;;5.82;1.88;;;;;;;;;;5056874;28;20219;-73
2024/03/21 08:01:18;;;;;;;5.78;1.83;;;;;;;;;;5053475;28;20277;-73
2024/03/21 08:03:43;;;;;;;9.77;2.17;;;;;;;;;;5055015;28;20318;-73
2024/03/21 08:06:09;;;;;;;4.18;1.65;;;;;;;;;;5053183;28;20264;-72
2024/03/21 08:08:34;;;;;;;6.45;1.88;;;;;;;;;;5055489;28;20549;-73
2024/03/21 08:11:00;;;;;;;6.80;1.83;;;;;;;;;;5052398;28;20564;-72
2024/03/21 08:13:25;;;;;;;6.47;1.73;;;;;;;;;;5053132;28;20213;-72
2024/03/21 08:15:54;;;;;;;7.10;2.10;;;;;;;;;;5055119;28;20205;-72
2024/03/21 08:18:20;;;;;;;6.93;1.67;;;;;;;;;;5059414;28;20243;-72
2024/03/21 08:20:45;;;;;;;7.05;1.90;;;;;;;;;;5059527;28;20190;-73
2024/03/21 08:23:13;;;;;;;12.35;2.20;;;;;;;;;;5059428;28;20196;-73
2024/03/21 08:25:38;;;;;;;5.38;2.20;;;;;;;;;;5043825;28;20281;-73
2024/03/21 08:28:03;;;;;;;4.63;1.85;;;;;;;;;;5055804;28;20554;-73
2024/03/21 08:30:29;;;;;;;7.82;1.70;;;;;;;;;;5050981;28;20188;-73
2024/03/21 08:32:54;;;;;;;4.63;1.80;;;;;;;;;;5056507;28;20185;-74
2024/03/21 08:35:20;;;;;;;5.57;1.60;;;;;;;;;;5049826;28;20204;-72
2024/03/21 08:37:45;;;;;;;5.95;1.85;;;;;;;;;;5051942;28;20366;-73
2024/03/21 08:40:13;;;;;;;5.72;1.77;;;;;;;;;;5050432;28;20260;-72
2024/03/21 08:42:42;;;;;;;4.80;1.60;;;;;;;;;;5055235;28;20192;-72
2024/03/21 08:45:10;;;;;;;5.60;1.60;;;;;;;;;;5053885;28;20192;-72
2024/03/21 08:47:36;;;;;;;7.80;2.30;;;;;;;;;;5053642;28;20190;-73
2024/03/21 08:50:03;;;;;;;4.93;2.20;;;;;;;;;;5053641;28;20177;-73
2024/03/21 08:52:28;;;;;;;6.57;1.60;;;;;;;;;;5052621;28;20211;-73
2024/03/21 08:54:53;;;;;;;3.35;1.20;;;;;;;;;;5054425;28;20196;-73
2024/03/21 08:57:19;;;;;;;8.27;1.60;;;;;;;;;;5054701;28;20205;-73
2024/03/21 08:59:45;;;;;;;9.90;1.65;;;;;;;;;;5052329;28;20193;-73
2024/03/21 09:02:13;;;;;;;6.43;2.45;;;;;;;;;;5052677;28;20197;-73
2024/03/21 09:04:38;;;;;;;5.18;1.50;;;;;;;;;;5059749;28;20755;-72
2024/03/21 09:07:05;;;;;;;7.78;1.73;;;;;;;;;;5052041;28;20272;-73
2024/03/21 09:09:36;;;;;;;4.85;1.50;;;;;;;;;;5053560;28;20696;-72
2024/03/21 09:12:06;;;;;;;3.85;1.45;;;;;;;;;;5058062;28;20217;-73
2024/03/21 09:14:32;;;;;;;4.18;1.63;;;;;;;;;;5059106;28;20208;-73
2024/03/21 09:16:57;;;;;;;4.40;1.50;;;;;;;;;;5050368;28;20298;-73
2024/03/21 09:19:23;;;;;;;4.70;1.50;;;;;;;;;;5032629;28;20204;-73
2024/03/21 09:21:48;;;;;;;5.45;1.60;;;;;;;;;;5056293;28;20605;-72
2024/03/21 09:24:14;;;;;;;5.75;1.75;;;;;;;;;;5051277;28;20650;-73
2024/03/21 09:26:41;;;;;;;5.57;1.63;;;;;;;;;;5057589;28;20183;-73
2024/03/21 09:29:07;;;;;;;4.90;1.50;;;;;;;;;;5048695;28;20205;-73
2024/03/21 09:31:33;;;;;;;4.25;1.40;;;;;;;;;;5058342;28;20177;-73
2024/03/21 09:33:58;;;;;;;6.30;1.75;;;;;;;;;;5061023;28;20200;-73
2024/03/21 09:36:25;;;;;;;5.47;1.42;;;;;;;;;;5055127;28;20308;-73
2024/03/21 09:38:51;;;;;;;5.13;1.60;;;;;;;;;;5061109;28;20242;-73
2024/03/21 09:41:16;;;;;;;4.68;1.75;;;;;;;;;;5056746;28;20192;-73
2024/03/21 09:43:43;;;;;;;5.18;1.58;;;;;;;;;;5057029;28;20237;-73
2024/03/21 09:46:13;;;;;;;4.75;1.20;;;;;;;;;;5054428;28;20207;-73
2024/03/21 09:48:39;;;;;;;7.63;1.63;;;;;;;;;;5056825;28;20271;-73
2024/03/21 09:51:15;;;;;;;8.50;1.80;;;;;;;;;;5059882;28;20275;-73
2024/03/21 09:53:40;;;;;;;6.38;1.60;;;;;;;;;;5056638;28;20176;-73
2024/03/21 09:56:08;;;;;;;4.80;1.42;;;;;;;;;;5056593;28;20246;-73
2024/03/21 09:58:34;;;;;;;2.65;1.55;;;;;;;;;;5056792;28;20186;-73
2024/03/21 10:01:03;;;;;;;4.97;2.60;;;;;;;;;;5057120;28;20631;-73
2024/03/21 10:03:28;;;;;;;6.95;1.55;;;;;;;;;;5057779;28;20269;-73
2024/03/21 10:06:06;;;;;;;9.48;1.58;;;;;;;;;;5055372;28;20679;-73
2024/03/21 10:08:31;;;;;;;6.47;1.90;;;;;;;;;;5053568;28;20272;-73
2024/03/21 10:10:58;;;;;;;6.70;1.50;;;;;;;;;;5049445;28;20605;-74
2024/03/21 10:13:24;;;;;;;6.00;1.55;;;;;;;;;;5051716;28;20189;-71
2024/03/21 10:15:50;;;;;;;5.70;1.92;;;;;;;;;;5057922;28;20289;-72
2024/03/21 10:18:15;;;;;;;6.85;1.50;;;;;;;;;;5056465;28;20648;-73
2024/03/21 10:20:41;;;;;;;5.40;1.20;;;;;;;;;;5060504;28;20181;-73
2024/03/21 10:23:15;;;;;;;3.63;1.33;;;;;;;;;;5054173;28;20196;-73
2024/03/21 10:25:42;;;;;;;4.30;1.33;;;;;;;;;;5058496;28;20185;-72
2024/03/21 10:28:15;;;;;;;7.63;1.50;;;;;;;;;;5050736;28;20181;-72
2024/03/21 10:30:42;;;;;;;2.95;1.20;;;;;;;;;;5056120;28;20189;-73
2024/03/21 10:33:16;;;;;;;4.53;1.38;;;;;;;;;;5055068;28;20568;-73
2024/03/21 10:35:41;;;;;;;4.38;1.27;;;;;;;;;;5057838;28;21808;-73
2024/03/21 10:38:13;;;;;;;4.97;1.20;;;;;;;;;;5056111;28;20201;-73
2024/03/21 10:40:45;;;;;;;6.35;1.48;;;;;;;;;;5052631;28;20182;-72
2024/03/21 10:43:14;;;;;;;3.33;1.10;;;;;;;;;;5054782;28;20189;-72
2024/03/21 10:45:41;;;;;;;6.07;1.60;;;;;;;;;;5056068;28;20181;-72
2024/03/21 10:48:30;;;;;;;5.80;1.50;;;;;;;;;;5035953;28;20709;-72
2024/03/21 10:50:56;;;;;;;7.75;1.65;;;;;;;;;;5055051;28;20187;-73
2024/03/21 10:53:22;;;;;;;7.53;1.52;;;;;;;;;;5055377;28;20279;-72
2024/03/21 10:55:50;;;;;;;10.40;1.77;;;;;;;;;;5055054;28;20182;-72
2024/03/21 10:58:17;;;;;;;6.90;1.90;;;;;;;;;;5055933;28;20224;-72
2024/03/21 11:00:54;;;;;;;4.57;1.67;;;;;;;;;;5055262;28;20263;-72
2024/03/21 11:03:20;;;;;;;3.72;1.73;;;;;;;;;;5051891;28;20193;-73
2024/03/21 11:05:55;;;;;;;5.75;2.13;;;;;;;;;;5055863;28;20211;-72
2024/03/21 11:08:28;;;;;;;8.75;2.80;;;;;;;;;;5052984;28;20645;-72
2024/03/21 11:10:56;;;;;;;7.05;2.80;;;;;;;;;;5054119;28;20333;-72
2024/03/21 11:13:25;;;;;;;8.55;3.08;;;;;;;;;;5059739;28;20189;-72
2024/03/21 11:15:55;;;;;;;8.20;2.88;;;;;;;;;;5055601;28;20177;-72
2024/03/21 11:18:20;;;;;;;7.82;2.90;;;;;;;;;;5056901;28;20181;-72
2024/03/21 11:20:49;;;;;;;10.48;2.95;;;;;;;;;;5057820;28;20192;-72
2024/03/21 11:23:15;;;;;;;8.45;3.28;;;;;;;;;;5054683;28;20691;-73
2024/03/21 11:25:41;;;;;;;9.88;3.03;;;;;;;;;;5051205;28;20624;-72
2024/03/21 11:28:13;;;;;;;8.90;2.38;;;;;;;;;;5049869;28;20188;-72
2024/03/21 11:30:43;;;;;;;7.80;2.40;;;;;;;;;;5053755;28;20177;-72
2024/03/21 11:33:10;;;;;;;7.53;1.92;;;;;;;;;;5054463;28;20723;-72
2024/03/21 11:35:39;;;;;;;5.75;1.95;;;;;;;;;;5054992;28;20270;-73
2024/03/21 11:38:04;;;;;;;5.40;1.73;;;;;;;;;;5053665;28;20660;-73
2024/03/21 11:40:30;;;;;;;5.03;2.05;;;;;;;;;;5030025;28;20186;-73
2024/03/21 11:43:04;;;;;;;5.10;2.20;;;;;;;;;;5050319;28;20242;-72
2024/03/21 11:45:30;;;;;;;3.30;1.70;;;;;;;;;;5053702;28;20647;-73
2024/03/21 11:48:11;;;;;;;6.68;1.75;;;;;;;;;;5052029;28;20197;-73
2024/03/21 11:50:38;;;;;;;5.20;1.88;;;;;;;;;;5053203;28;20269;-73
2024/03/21 11:53:05;;;;;;;4.15;1.85;;;;;;;;;;5051062;28;20190;-72
2024/03/21 11:55:30;;;;;;;6.60;1.85;;;;;;;;;;5056917;28;20250;-73
2024/03/21 11:57:56;;;;;;;5.85;2.00;;;;;;;;;;5052939;28;20209;-73
2024/03/21 12:00:25;;;;;;;5.45;2.20;;;;;;;;;;5053209;28;20252;-72
2024/03/21 12:02:52;;;;;;;13.48;2.28;;;;;;;;;;5057511;28;20215;-72
2024/03/21 12:05:18;;;;;;;8.60;2.30;;;;;;;;;;5052118;28;20255;-72
2024/03/21 12:07:44;;;;;;;5.72;2.30;;;;;;;;;;5057227;28;20208;-73
2024/03/21 12:10:10;;;;;;;6.53;2.50;;;;;;;;;;5053488;28;20217;-72
2024/03/21 12:12:36;;;;;;;7.18;2.20;;;;;;;;;;5056627;28;20194;-72
2024/03/21 12:15:02;;;;;;;8.02;2.40;;;;;;;;;;5052210;28;20208;-72
2024/03/21 12:17:27;;;;;;;9.82;2.58;;;;;;;;;;5050096;28;20220;-72
2024/03/21 12:19:53;;;;;;;13.40;3.05;;;;;;;;;;5057862;28;20212;-73
2024/03/21 12:22:19;;;;;;;7.72;3.80;;;;;;;;;;5050312;28;20181;-73
2024/03/21 12:24:45;;;;;;;9.93;5.32;;;;;;;;;;5050962;28;20189;-72
2024/03/21 12:27:11;;;;;;;7.65;4.50;;;;;;;;;;5054601;28;20185;-73
2024/03/21 12:29:36;;;;;;;10.05;5.15;;;;;;;;;;5054167;28;20648;-73
2024/03/21 12:32:02;;;;;;;11.68;5.85;;;;;;;;;;5050626;28;20284;-72
2024/03/21 12:34:27;;;;;;;12.60;5.32;;;;;;;;;;5052997;28;20676;-72
2024/03/21 12:36:53;;;;;;;10.27;4.68;;;;;;;;;;5052317;28;20724;-72
2024/03/21 12:39:20;;;;;;;6.65;3.97;;;;;;;;;;5054179;28;20605;-72
2024/03/21 12:41:46;;;;;;;10.43;3.78;;;;;;;;;;5053264;28;20530;-72
2024/03/21 12:44:13;;;;;;;7.20;3.50;;;;;;;;;;5053504;28;20667;-72
2024/03/21 12:46:40;;;;;;;10.10;2.95;;;;;;;;;;5045496;28;20192;-72
2024/03/21 12:49:05;;;;;;;4.85;2.78;;;;;;;;;;5057240;28;20656;-72
2024/03/21 12:51:30;;;;;;;10.52;3.65;;;;;;;;;;5052700;28;20237;-72
2024/03/21 12:53:56;;;;;;;8.35;2.40;;;;;;;;;;5052388;28;20828;-72
2024/03/21 12:56:21;;;;;;;9.43;2.60;;;;;;;;;;5054759;28;20248;-72
2024/03/21 12:58:48;;;;;;;11.73;2.63;;;;;;;;;;5054825;28;20268;-72
2024/03/21 13:01:13;;;;;;;10.70;2.75;;;;;;;;;;5052854;28;20188;-72
2024/03/21 13:03:38;;;;;;;6.97;2.58;;;;;;;;;;5053501;28;20184;-72
2024/03/21 13:06:04;;;;;;;6.47;2.58;;;;;;;;;;5056198;28;20185;-72
2024/03/21 13:08:30;;;;;;;5.07;2.15;;;;;;;;;;5055039;28;20301;-72
2024/03/21 13:10:55;;;;;;;6.00;2.25;;;;;;;;;;5053682;28;20280;-72
2024/03/21 13:13:21;;;;;;;7.65;2.60;;;;;;;;;;5050830;28;20197;-72
2024/03/21 13:15:46;;;;;;;7.82;2.60;;;;;;;;;;5052802;28;20185;-72
2024/03/21 13:18:12;;;;;;;7.00;2.58;;;;;;;;;;5054739;28;20181;-72
2024/03/21 13:20:37;;;;;;;7.07;2.53;;;;;;;;;;5051923;28;20178;-72
2024/03/21 13:23:03;;;;;;;6.22;2.30;;;;;;;;;;5053698;28;20226;-72
2024/03/21 13:25:31;;;;;;;4.65;2.30;;;;;;;;;;5056264;28;20193;-72
2024/03/21 13:27:56;;;;;;;7.07;2.20;;;;;;;;;;5053730;28;20204;-72
2024/03/21 13:30:26;;;;;;;7.47;2.60;;;;;;;;;;5053995;28;20194;-72
2024/03/21 13:32:52;;;;;;;5.35;2.30;;;;;;;;;;5051476;28;20199;-73
2024/03/21 13:35:19;;;;;;;4.28;2.30;;;;;;;;;;5055482;28;20180;-72
2024/03/21 13:37:48;;;;;;;7.65;2.55;;;;;;;;;;5050954;28;20222;-71
2024/03/21 13:40:13;;;;;;;9.05;2.50;;;;;;;;;;5053878;28;20624;-73
2024/03/21 13:42:38;;;;;;;5.18;2.30;;;;;;;;;;5054961;28;20189;-72
2024/03/21 13:45:05;;;;;;;6.93;2.60;;;;;;;;;;5054104;28;20610;-71
2024/03/21 13:47:32;;;;;;;8.38;2.33;;;;;;;;;;5054586;28;20173;-72
2024/03/21 13:49:58;;;;;;;6.40;2.28;;;;;;;;;;5055584;28;20213;-72
2024/03/21 13:52:26;;;;;;;6.30;2.15;;;;;;;;;;5055136;28;20185;-72
2024/03/21 13:54:52;;;;;;;8.55;2.20;;;;;;;;;;5052676;28;20197;-72
2024/03/21 13:57:17;;;;;;;7.18;2.22;;;;;;;;;;5058175;28;20210;-72
2024/03/21 13:59:44;;;;;;;4.60;1.98;;;;;;;;;;5056797;28;20204;-73
2024/03/21 14:02:09;;;;;;;7.95;2.33;;;;;;;;;;5047249;28;20571;-72
2024/03/21 14:04:35;;;;;;;5.88;2.25;;;;;;;;;;5055513;28;20212;-73
2024/03/21 14:07:01;;;;;;;9.02;2.40;;;;;;;;;;5056117;28;20203;-72
2024/03/21 14:09:26;;;;;;;6.95;2.38;;;;;;;;;;5055014;28;20239;-73
2024/03/21 14:11:52;;;;;;;5.35;2.28;;;;;;;;;;5051876;28;20196;-72
2024/03/21 14:14:17;;;;;;;5.97;2.45;;;;;;;;;;5030837;28;20182;-72
2024/03/21 14:16:43;;;;;;;9.30;2.55;;;;;;;;;;5058231;28;20205;-73
2024/03/21 14:19:09;;;;;;;7.18;2.63;;;;;;;;;;5038367;28;20198;-72
2024/03/21 14:21:34;;;;;;;4.53;1.80;;;;;;;;;;5056211;28;20186;-72
2024/03/21 14:23:59;;;;;;;10.50;2.47;;;;;;;;;;5058265;28;20190;-73
2024/03/21 14:26:25;;;;;;;6.72;2.47;;;;;;;;;;5056005;28;20323;-73
2024/03/21 14:28:50;;;;;;;7.72;2.30;;;;;;;;;;5056558;28;20721;-73